createdAt,value
2022-12-28T00:02:14.840Z,99201.53
2022-12-28T00:04:42.918Z,99203.25
2022-12-28T00:07:11.100Z,99205.00
2022-12-28T00:09:39.175Z,99181.78
2022-12-28T00:12:09.014Z,99197.31
2022-12-28T00:14:37.143Z,99190.19
2022-12-28T00:17:05.222Z,99191.03
2022-12-28T00:19:33.467Z,99183.22
2022-12-28T00:22:01.893Z,99184.59
2022-12-28T00:24:30.250Z,99183.22
2022-12-28T00:26:58.333Z,99190.47
2022-12-28T00:29:27.899Z,99189.09
2022-12-28T00:31:56.348Z,99185.78
2022-12-28T00:34:25.406Z,99184.06
2022-12-28T00:37:11.290Z,99187.31
2022-12-28T00:39:41.877Z,99186.72
2022-12-28T00:42:10.323Z,99185.22
2022-12-28T00:44:40.289Z,99183.66
2022-12-28T00:47:09.252Z,99184.91
2022-12-28T00:49:40.482Z,99192.19
2022-12-28T00:52:08.551Z,99198.81
2022-12-28T00:54:36.661Z,99202.56
2022-12-28T00:57:04.933Z,99202.59
2022-12-28T00:59:34.604Z,99190.06
2022-12-28T01:02:04.239Z,99187.97
2022-12-28T01:04:32.487Z,99197.16
2022-12-28T01:07:00.602Z,99189.19
2022-12-28T01:09:28.698Z,99192.19
2022-12-28T01:11:56.774Z,99197.56
2022-12-28T01:14:24.908Z,99203.56
2022-12-28T01:16:53.233Z,99189.19
2022-12-28T01:19:24.384Z,99206.19
2022-12-28T01:21:53.105Z,99209.47
2022-12-28T01:24:21.429Z,99201.69
2022-12-28T01:26:49.504Z,99205.44
2022-12-28T01:29:18.972Z,99198.59
2022-12-28T01:31:47.279Z,99205.50
2022-12-28T01:34:15.426Z,99203.00
2022-12-28T01:36:48.691Z,99198.34
2022-12-28T01:39:16.938Z,99193.84
2022-12-28T01:41:45.071Z,99196.00
2022-12-28T01:44:45.111Z,99187.13
2022-12-28T01:47:19.853Z,99189.25
2022-12-28T01:49:56.474Z,99180.94
2022-12-28T01:52:31.154Z,99188.16
2022-12-28T01:55:06.160Z,99186.91
2022-12-28T01:57:39.108Z,99173.06
2022-12-28T02:00:11.096Z,99171.22
2022-12-28T02:02:51.268Z,99172.56
2022-12-28T02:05:21.541Z,99162.38
2022-12-28T02:07:56.426Z,99166.75
2022-12-28T02:10:44.613Z,99152.69
2022-12-28T02:13:15.993Z,99155.25
2022-12-28T02:15:45.535Z,99149.38
2022-12-28T02:18:15.704Z,99151.63
2022-12-28T02:21:00.172Z,99154.66
2022-12-28T02:23:43.569Z,99150.13
2022-12-28T02:26:47.333Z,99155.41
2022-12-28T02:29:33.295Z,99163.44
2022-12-28T02:32:11.899Z,99168.47
2022-12-28T02:34:47.317Z,99172.34
2022-12-28T02:37:20.923Z,99158.53
2022-12-28T02:39:54.028Z,99157.75
2022-12-28T02:42:24.675Z,99155.25
2022-12-28T02:45:11.516Z,99151.47
2022-12-28T02:48:00.923Z,99148.41
2022-12-28T02:50:40.215Z,99152.69
2022-12-28T02:53:33.949Z,99143.69
2022-12-28T02:56:16.253Z,99143.91
2022-12-28T02:59:10.505Z,99142.88
2022-12-28T03:02:07.394Z,99130.25
2022-12-28T03:04:51.922Z,99122.16
2022-12-28T03:07:47.628Z,99104.88
2022-12-28T03:10:22.391Z,99104.41
2022-12-28T03:12:56.795Z,99111.53
2022-12-28T03:15:32.867Z,99100.13
2022-12-28T03:18:26.849Z,99100.47
2022-12-28T03:21:16.465Z,99109.47
2022-12-28T03:24:05.250Z,99100.78
2022-12-28T03:26:54.210Z,99093.09
2022-12-28T03:29:43.177Z,99090.31
2022-12-28T03:32:12.109Z,99099.53
2022-12-28T03:34:42.090Z,99091.34
2022-12-28T03:37:18.031Z,99089.38
2022-12-28T03:39:52.138Z,99096.94
2022-12-28T03:42:46.070Z,99088.66
2022-12-28T03:45:46.213Z,99099.16
2022-12-28T03:48:12.246Z,99096.78
2022-12-28T03:50:45.252Z,99097.50
2022-12-28T03:53:16.626Z,99091.59
2022-12-28T03:55:45.029Z,99101.34
2022-12-28T03:58:14.912Z,99100.06
2022-12-28T04:00:43.144Z,99108.09
2022-12-28T04:03:11.375Z,99106.72
2022-12-28T04:05:39.526Z,99094.84
2022-12-28T04:08:09.050Z,99089.88
2022-12-28T04:10:37.492Z,99089.38
2022-12-28T04:13:05.746Z,99086.81
2022-12-28T04:15:57.298Z,99091.94
2022-12-28T04:18:25.621Z,99088.97
2022-12-28T04:20:54.142Z,99089.31
2022-12-28T04:23:23.733Z,99081.00
2022-12-28T04:26:00.545Z,99082.31
2022-12-28T04:28:29.709Z,99077.41
2022-12-28T04:31:22.767Z,99081.47
2022-12-28T04:33:58.263Z,99070.38
2022-12-28T04:36:26.919Z,99075.75
2022-12-28T04:38:59.298Z,99071.81
2022-12-28T04:41:27.447Z,99072.63
2022-12-28T04:43:56.473Z,99057.97
2022-12-28T04:46:25.229Z,99065.22
2022-12-28T04:48:53.929Z,99070.78
2022-12-28T04:51:24.171Z,99070.63
2022-12-28T04:53:53.119Z,99069.09
2022-12-28T04:56:23.932Z,99061.41
2022-12-28T04:58:55.841Z,99050.38
2022-12-28T05:01:24.317Z,99045.03
2022-12-28T05:03:56.535Z,99032.25
2022-12-28T05:06:27.852Z,99039.53
2022-12-28T05:08:57.099Z,99040.81
2022-12-28T05:11:28.858Z,99038.44
2022-12-28T05:13:57.654Z,99041.53
2022-12-28T05:16:27.542Z,99040.16
2022-12-28T05:18:56.718Z,99034.94
2022-12-28T05:21:26.258Z,99032.56
2022-12-28T05:23:55.554Z,99030.38
2022-12-28T05:26:29.042Z,99033.22
2022-12-28T05:28:58.757Z,99034.13
2022-12-28T05:31:27.865Z,99048.19
2022-12-28T05:33:56.368Z,99045.03
2022-12-28T05:36:26.726Z,99041.09
2022-12-28T05:38:56.854Z,99046.28
2022-12-28T05:41:28.417Z,99034.53
2022-12-28T05:43:57.207Z,99036.53
2022-12-28T05:46:27.330Z,99035.84
2022-12-28T05:48:56.413Z,99029.19
2022-12-28T05:51:27.013Z,99030.94
2022-12-28T05:53:55.987Z,99029.53
2022-12-28T05:56:25.921Z,99033.09
2022-12-28T05:58:57.118Z,99016.63
2022-12-28T06:01:27.186Z,99019.44
2022-12-28T06:03:59.150Z,99010.94
2022-12-28T06:06:27.695Z,98994.41
2022-12-28T06:08:55.782Z,99012.00
2022-12-28T06:11:26.239Z,99015.31
2022-12-28T06:13:57.030Z,99016.38
2022-12-28T06:16:27.288Z,99006.66
2022-12-28T06:19:01.162Z,99006.03
2022-12-28T06:21:31.007Z,98997.06
2022-12-28T06:24:00.537Z,99001.34
2022-12-28T06:26:30.267Z,99012.09
2022-12-28T06:29:01.672Z,99015.41
2022-12-28T06:31:32.020Z,99010.38
2022-12-28T06:34:02.153Z,99004.38
2022-12-28T06:36:32.215Z,99004.31
2022-12-28T06:39:02.068Z,99000.88
2022-12-28T06:41:30.812Z,99000.63
2022-12-28T06:44:01.184Z,98994.47
2022-12-28T06:46:31.561Z,98988.03
2022-12-28T06:49:00.293Z,98987.66
2022-12-28T06:51:30.137Z,98987.72
2022-12-28T06:53:58.960Z,98983.44
2022-12-28T06:56:29.181Z,98987.97
2022-12-28T06:59:02.872Z,98987.41
2022-12-28T07:01:36.248Z,98975.78
2022-12-28T07:04:07.507Z,98974.72
2022-12-28T07:06:38.316Z,98975.06
2022-12-28T07:09:09.670Z,98972.72
2022-12-28T07:11:38.305Z,98962.69
2022-12-28T07:14:06.602Z,98957.69
2022-12-28T07:19:03.373Z,98953.72
2022-12-28T07:21:32.728Z,98956.38
2022-12-28T07:24:00.963Z,98945.34
2022-12-28T07:26:30.642Z,98951.50
2022-12-28T07:29:00.646Z,98949.03
2022-12-28T07:31:31.120Z,98947.13
2022-12-28T07:34:01.581Z,98938.28
2022-12-28T07:36:32.003Z,98935.13
2022-12-28T07:39:01.193Z,98939.06
2022-12-28T07:41:31.091Z,98947.06
2022-12-28T07:44:00.049Z,98941.53
2022-12-28T07:46:29.953Z,98940.66
2022-12-28T07:48:58.496Z,98935.22
2022-12-28T07:51:29.689Z,98927.72
2022-12-28T07:53:58.967Z,98926.66
2022-12-28T07:56:28.355Z,98924.47
2022-12-28T07:58:58.510Z,98921.78
2022-12-28T08:01:28.907Z,98930.53
2022-12-28T08:04:00.512Z,98933.50
2022-12-28T08:06:34.193Z,98918.63
2022-12-28T08:09:02.919Z,98923.94
2022-12-28T08:11:32.808Z,98926.16
2022-12-28T08:14:01.907Z,98928.03
2022-12-28T08:16:31.868Z,98925.56
2022-12-28T08:19:00.482Z,98921.84
2022-12-28T08:21:31.805Z,98913.19
2022-12-28T08:24:01.063Z,98915.41
2022-12-28T08:26:30.951Z,98915.59
2022-12-28T08:29:01.379Z,98916.50
2022-12-28T08:31:31.570Z,98916.00
2022-12-28T08:34:01.650Z,98912.56
2022-12-28T08:36:31.258Z,98918.31
2022-12-28T08:38:59.812Z,98909.28
2022-12-28T08:41:29.002Z,98909.63
2022-12-28T08:43:58.121Z,98918.97
2022-12-28T08:46:27.831Z,98919.31
2022-12-28T08:48:57.743Z,98918.38
2022-12-28T08:51:27.970Z,98923.66
2022-12-28T08:53:57.474Z,98925.25
2022-12-28T08:56:27.838Z,98922.97
2022-12-28T08:58:57.003Z,98928.63
2022-12-28T09:01:27.510Z,98931.66
2022-12-28T09:04:02.360Z,98917.25
2022-12-28T09:06:33.874Z,98929.25
2022-12-28T09:09:06.806Z,98925.53
2022-12-28T09:11:36.222Z,98927.88
2022-12-28T09:14:05.760Z,98916.56
2022-12-28T09:16:34.002Z,98911.66
2022-12-28T09:19:04.178Z,98907.81
2022-12-28T09:21:35.098Z,98907.38
2022-12-28T09:24:05.390Z,98912.63
2022-12-28T09:26:37.472Z,98903.63
2022-12-28T09:29:08.790Z,98910.66
2022-12-28T09:31:38.641Z,98906.41
2022-12-28T09:36:56.095Z,98899.75
2022-12-28T09:39:25.703Z,98904.06
2022-12-28T09:41:57.025Z,98908.94
2022-12-28T09:44:35.575Z,98896.84
2022-12-28T09:47:12.647Z,98894.84
2022-12-28T09:49:45.902Z,98888.47
2022-12-28T09:52:28.154Z,98892.88
2022-12-28T09:55:05.293Z,98885.16
2022-12-28T09:57:38.807Z,98887.97
2022-12-28T10:00:15.959Z,98867.09
2022-12-28T10:02:49.253Z,98880.59
2022-12-28T10:05:18.036Z,98876.97
2022-12-28T10:07:46.150Z,98872.25
2022-12-28T10:10:18.433Z,98872.81
2022-12-28T10:12:47.197Z,98861.06
2022-12-28T10:15:16.218Z,98865.22
2022-12-28T10:17:45.146Z,98849.59
2022-12-28T10:20:18.108Z,98848.94
2022-12-28T10:22:50.327Z,98852.69
2022-12-28T10:25:22.220Z,98857.25
2022-12-28T10:27:50.862Z,98858.19
2022-12-28T10:30:21.593Z,98853.34
2022-12-28T10:32:55.481Z,98848.69
2022-12-28T10:35:30.263Z,98833.22
2022-12-28T10:38:04.591Z,98842.06
2022-12-28T10:40:37.551Z,98842.50
2022-12-28T10:43:10.735Z,98848.09
2022-12-28T10:45:42.985Z,98835.88
2022-12-28T10:48:22.836Z,98835.09
2022-12-28T10:50:54.577Z,98832.44
2022-12-28T10:53:29.709Z,98832.13
2022-12-28T10:56:19.279Z,98819.47
2022-12-28T10:58:48.726Z,98818.44
2022-12-28T11:01:26.143Z,98813.31
2022-12-28T11:04:04.965Z,98804.69
2022-12-28T11:06:34.511Z,98797.84
2022-12-28T11:09:17.123Z,98794.38
2022-12-28T11:11:49.041Z,98781.56
2022-12-28T11:14:26.617Z,98781.88
2022-12-28T11:16:54.814Z,98774.84
2022-12-28T11:19:24.907Z,98775.03
2022-12-28T11:21:53.567Z,98767.81
2022-12-28T11:24:29.025Z,98765.34
2022-12-28T11:26:58.956Z,98765.72
2022-12-28T11:29:27.027Z,98759.47
2022-12-28T11:32:01.102Z,98751.34
2022-12-28T11:34:31.067Z,98750.94
2022-12-28T11:36:59.936Z,98744.97
2022-12-28T11:39:34.277Z,98738.69
2022-12-28T11:42:37.032Z,98730.81
2022-12-28T11:44:53.708Z,98728.25
2022-12-28T11:47:33.347Z,98719.84
2022-12-28T11:50:47.185Z,98714.47
2022-12-28T11:53:49.900Z,98718.78
2022-12-28T11:56:19.047Z,98698.47
2022-12-28T11:59:03.573Z,98704.84
2022-12-28T12:01:59.838Z,98706.22
2022-12-28T12:04:39.661Z,98704.19
2022-12-28T12:07:31.227Z,98708.34
2022-12-28T12:10:35.156Z,98701.50
2022-12-28T12:13:40.726Z,98695.72
2022-12-28T12:16:21.919Z,98684.34
2022-12-28T12:18:54.185Z,98677.13
2022-12-28T12:21:31.567Z,98684.78
2022-12-28T12:24:06.843Z,98669.06
2022-12-28T12:26:39.288Z,98668.47
2022-12-28T12:29:15.806Z,98672.00
2022-12-28T12:31:51.167Z,98657.16
2022-12-28T12:34:25.076Z,98655.03
2022-12-28T12:37:24.089Z,98648.28
2022-12-28T12:40:14.915Z,98643.81
2022-12-28T12:42:55.687Z,98635.28
2022-12-28T12:45:33.694Z,98637.41
2022-12-28T12:48:29.022Z,98631.97
2022-12-28T12:51:16.940Z,98623.38
2022-12-28T12:53:59.716Z,98619.84
2022-12-28T12:56:41.582Z,98619.72
2022-12-28T12:59:29.089Z,98617.41
2022-12-28T13:02:04.811Z,98609.78
2022-12-28T13:04:36.499Z,98612.47
2022-12-28T13:07:07.594Z,98603.31
2022-12-28T13:09:37.490Z,98599.31
2022-12-28T13:12:15.670Z,98602.47
2022-12-28T13:14:46.216Z,98602.75
2022-12-28T13:17:19.593Z,98603.69
2022-12-28T13:19:49.538Z,98606.22
2022-12-28T13:22:29.080Z,98596.72
2022-12-28T13:24:59.106Z,98594.84
2022-12-28T13:27:32.719Z,98602.34
2022-12-28T13:30:02.735Z,98600.38
2022-12-28T13:32:37.754Z,98599.75
2022-12-28T13:35:19.655Z,98599.38
2022-12-28T13:38:00.782Z,98593.78
2022-12-28T13:40:29.426Z,98587.66
2022-12-28T13:43:18.332Z,98567.91
2022-12-28T13:45:51.010Z,98572.16
2022-12-28T13:48:19.648Z,98569.81
2022-12-28T13:50:50.079Z,98564.69
2022-12-28T13:53:23.235Z,98566.50
2022-12-28T13:55:54.302Z,98562.09
2022-12-28T13:58:28.568Z,98553.69
2022-12-28T14:00:59.563Z,98547.44
2022-12-28T14:03:28.607Z,98547.59
2022-12-28T14:06:02.093Z,98544.84
2022-12-28T14:08:35.004Z,98547.69
2022-12-28T14:11:03.707Z,98534.97
2022-12-28T14:13:32.891Z,98533.91
2022-12-28T14:16:02.435Z,98542.69
2022-12-28T14:18:33.708Z,98540.53
2022-12-28T14:21:04.283Z,98537.22
2022-12-28T14:23:34.203Z,98537.91
2022-12-28T14:26:05.022Z,98550.94
2022-12-28T14:28:37.398Z,98549.69
2022-12-28T14:31:07.399Z,98549.69
2022-12-28T14:33:38.444Z,98549.84
2022-12-28T14:36:09.733Z,98556.75
2022-12-28T14:38:42.890Z,98550.19
2022-12-28T14:41:19.580Z,98546.03
2022-12-28T14:43:54.150Z,98560.41
2022-12-28T14:46:32.482Z,98549.25
2022-12-28T14:49:00.998Z,98546.19
2022-12-28T14:51:33.331Z,98552.56
2022-12-28T14:54:20.799Z,98553.44
2022-12-28T14:56:53.749Z,98542.03
2022-12-28T14:59:27.485Z,98550.69
2022-12-28T15:01:56.039Z,98543.78
2022-12-28T15:04:35.753Z,98538.78
2022-12-28T15:07:06.041Z,98542.66
2022-12-28T15:09:34.341Z,98538.06
2022-12-28T15:12:10.084Z,98538.28
2022-12-28T15:14:38.565Z,98539.34
2022-12-28T15:17:07.395Z,98534.94
2022-12-28T15:19:35.564Z,98545.75
2022-12-28T15:22:05.422Z,98536.78
2022-12-28T15:24:34.683Z,98525.19
2022-12-28T15:27:02.909Z,98532.06
2022-12-28T15:32:19.318Z,98533.56
2022-12-28T15:34:47.396Z,98537.09
2022-12-28T15:37:16.958Z,98532.72
2022-12-28T15:39:46.271Z,98529.50
2022-12-28T15:42:14.372Z,98521.97
2022-12-28T15:44:42.509Z,98523.78
2022-12-28T15:47:10.693Z,98541.78
2022-12-28T15:49:38.892Z,98532.06
2022-12-28T15:52:07.096Z,98531.38
2022-12-28T15:54:36.586Z,98528.09
2022-12-28T15:57:04.881Z,98521.47
2022-12-28T15:59:33.035Z,98522.56
2022-12-28T16:02:01.463Z,98516.78
2022-12-28T16:04:29.714Z,98511.97
2022-12-28T16:06:57.791Z,98519.44
2022-12-28T16:09:25.869Z,98511.38
2022-12-28T16:11:55.564Z,98513.75
2022-12-28T16:14:23.891Z,98511.81
2022-12-28T16:16:52.527Z,98513.34
2022-12-28T16:19:20.773Z,98511.13
2022-12-28T16:21:51.325Z,98505.34
2022-12-28T16:24:19.880Z,98502.78
2022-12-28T16:26:48.334Z,98501.41
2022-12-28T16:29:18.126Z,98502.44
2022-12-28T16:31:46.301Z,98500.59
2022-12-28T16:34:17.040Z,98494.63
2022-12-28T16:36:47.364Z,98491.75
2022-12-28T16:39:17.992Z,98483.63
2022-12-28T16:41:46.491Z,98486.94
2022-12-28T16:44:16.399Z,98487.97
2022-12-28T16:46:46.013Z,98478.97
2022-12-28T16:49:14.450Z,98477.00
2022-12-28T16:51:45.283Z,98467.16
2022-12-28T16:54:16.851Z,98473.56
2022-12-28T16:56:45.259Z,98471.94
2022-12-28T16:59:18.058Z,98471.34
2022-12-28T17:01:48.016Z,98471.16
2022-12-28T17:04:16.490Z,98475.91
2022-12-28T17:06:46.593Z,98465.50
2022-12-28T17:09:15.193Z,98467.03
2022-12-28T17:11:43.473Z,98470.53
2022-12-28T17:14:13.260Z,98468.44
2022-12-28T17:16:41.768Z,98468.59
2022-12-28T17:19:11.252Z,98478.88
2022-12-28T17:21:39.565Z,98474.69
2022-12-28T17:24:08.542Z,98473.13
2022-12-28T17:26:36.662Z,98470.72
2022-12-28T17:29:05.521Z,98475.41
2022-12-28T17:31:33.657Z,98477.56
2022-12-28T17:34:03.091Z,98471.28
2022-12-28T17:36:32.577Z,98468.53
2022-12-28T17:39:00.718Z,98466.75
2022-12-28T17:41:29.190Z,98460.31
2022-12-28T17:43:59.075Z,98456.59
2022-12-28T17:46:29.038Z,98459.94
2022-12-28T17:48:59.054Z,98453.50
2022-12-28T17:51:29.277Z,98452.91
2022-12-28T17:53:58.881Z,98457.63
2022-12-28T17:56:27.876Z,98465.06
2022-12-28T17:58:57.525Z,98455.38
2022-12-28T18:01:26.262Z,98461.06
2022-12-28T18:03:55.345Z,98456.03
2022-12-28T18:06:24.006Z,98458.38
2022-12-28T18:08:52.366Z,98447.34
2022-12-28T18:11:22.058Z,98457.09
2022-12-28T18:13:50.146Z,98464.78
2022-12-28T18:16:21.304Z,98456.59
2022-12-28T18:18:49.738Z,98452.94
2022-12-28T18:21:22.023Z,98448.56
2022-12-28T18:23:52.268Z,98448.22
2022-12-28T18:26:23.715Z,98448.59
2022-12-28T18:28:51.835Z,98443.94
2022-12-28T18:31:20.739Z,98447.19
2022-12-28T18:33:48.971Z,98446.41
2022-12-28T18:36:18.391Z,98444.28
2022-12-28T18:38:48.144Z,98435.81
2022-12-28T18:41:18.848Z,98440.25
2022-12-28T18:43:48.777Z,98445.63
2022-12-28T18:46:16.954Z,98447.16
2022-12-28T18:48:45.064Z,98441.88
2022-12-28T18:51:14.832Z,98441.47
2022-12-28T18:53:43.197Z,98447.63
2022-12-28T18:56:13.558Z,98445.53
2022-12-28T18:58:43.227Z,98444.44
2022-12-28T19:04:03.696Z,98448.53
2022-12-28T19:06:32.873Z,98430.97
2022-12-28T19:09:01.692Z,98442.88
2022-12-28T19:11:30.426Z,98434.06
2022-12-28T19:13:58.646Z,98439.94
2022-12-28T19:16:31.456Z,98440.84
2022-12-28T19:19:00.417Z,98441.00
2022-12-28T19:21:30.615Z,98439.78
2022-12-28T19:24:00.746Z,98434.59
2022-12-28T19:26:28.932Z,98433.78
2022-12-28T19:29:01.358Z,98446.22
2022-12-28T19:31:31.558Z,98439.53
2022-12-28T19:33:59.753Z,98445.16
2022-12-28T19:36:27.934Z,98438.97
2022-12-28T19:38:56.791Z,98445.91
2022-12-28T19:41:25.389Z,98433.63
2022-12-28T19:43:53.528Z,98434.28
2022-12-28T19:46:23.423Z,98431.72
2022-12-28T19:48:54.860Z,98428.34
2022-12-28T19:51:30.055Z,98433.72
2022-12-28T19:53:59.058Z,98426.03
2022-12-28T19:56:27.248Z,98423.31
2022-12-28T19:59:01.182Z,98422.03
2022-12-28T20:01:33.601Z,98420.59
2022-12-28T20:04:08.793Z,98409.84
2022-12-28T20:06:40.930Z,98411.06
2022-12-28T20:09:08.995Z,98406.69
2022-12-28T20:11:37.517Z,98405.88
2022-12-28T20:14:06.524Z,98403.94
2022-12-28T20:16:36.538Z,98408.44
2022-12-28T20:19:08.652Z,98407.41
2022-12-28T20:21:37.754Z,98410.66
2022-12-28T20:24:07.190Z,98407.53
2022-12-28T20:26:35.940Z,98408.16
2022-12-28T20:29:05.019Z,98408.22
2022-12-28T20:31:33.205Z,98401.72
2022-12-28T20:34:01.758Z,98407.75
2022-12-28T20:36:34.037Z,98403.03
2022-12-28T20:39:02.893Z,98408.06
2022-12-28T20:41:50.681Z,98401.09
2022-12-28T20:44:23.919Z,98400.84
2022-12-28T20:46:52.527Z,98399.66
2022-12-28T20:49:20.618Z,98399.72
2022-12-28T20:51:50.328Z,98395.38
2022-12-28T20:54:19.530Z,98397.50
2022-12-28T20:56:54.271Z,98393.69
2022-12-28T20:59:24.803Z,98386.03
2022-12-28T21:01:53.663Z,98388.09
2022-12-28T21:04:24.094Z,98383.03
2022-12-28T21:06:54.443Z,98385.00
2022-12-28T21:09:23.003Z,98385.72
2022-12-28T21:11:51.213Z,98379.66
2022-12-28T21:14:19.505Z,98388.44
2022-12-28T21:16:47.668Z,98384.44
2022-12-28T21:19:15.881Z,98372.66
2022-12-28T21:21:43.966Z,98380.53
2022-12-28T21:24:13.591Z,98377.81
2022-12-28T21:26:41.800Z,98367.47
2022-12-28T21:29:10.027Z,98364.56
2022-12-28T21:31:38.299Z,98368.25
2022-12-28T21:34:06.410Z,98362.00
2022-12-28T21:36:34.613Z,98362.63
2022-12-28T21:39:02.713Z,98370.34
2022-12-28T21:41:50.629Z,98364.66
2022-12-28T21:44:20.941Z,98371.97
2022-12-28T21:46:51.091Z,98363.53
2022-12-28T21:49:19.762Z,98355.75
2022-12-28T21:51:48.735Z,98341.59
2022-12-28T21:54:18.824Z,98346.78
2022-12-28T21:56:51.700Z,98346.97
2022-12-28T21:59:20.168Z,98335.91
2022-12-28T22:02:05.962Z,98338.06
2022-12-28T22:04:54.397Z,98327.72
2022-12-28T22:07:26.745Z,98323.31
2022-12-28T22:10:12.293Z,98318.94
2022-12-28T22:12:41.974Z,98320.31
2022-12-28T22:15:29.992Z,98314.97
2022-12-28T22:18:00.125Z,98319.19
2022-12-28T22:20:29.553Z,98311.56
2022-12-28T22:22:59.589Z,98299.97
2022-12-28T22:25:28.812Z,98304.50
2022-12-28T22:27:58.649Z,98309.53
2022-12-28T22:30:27.431Z,98306.28
2022-12-28T22:32:55.952Z,98303.22
2022-12-28T22:35:24.586Z,98303.47
2022-12-28T22:37:52.684Z,98316.41
2022-12-28T22:40:20.812Z,98308.59
2022-12-28T22:42:50.704Z,98296.72
2022-12-28T22:45:21.806Z,98294.38
2022-12-28T22:47:50.534Z,98289.03
2022-12-28T22:50:19.682Z,98281.09
2022-12-28T22:52:48.296Z,98282.53
2022-12-28T22:55:16.548Z,98277.75
2022-12-28T22:57:45.141Z,98286.03
2022-12-28T23:00:15.369Z,98286.75
2022-12-28T23:02:46.086Z,98284.53
2022-12-28T23:05:14.396Z,98278.28
2022-12-28T23:07:42.503Z,98283.69
2022-12-28T23:10:11.426Z,98285.34
2022-12-28T23:12:39.579Z,98284.31
2022-12-28T23:15:18.673Z,98286.50
2022-12-28T23:17:50.156Z,98286.59
2022-12-28T23:20:36.152Z,98277.56
2022-12-28T23:23:22.055Z,98290.69
2022-12-28T23:26:07.871Z,98271.84
2022-12-28T23:28:37.055Z,98278.69
2022-12-28T23:31:05.828Z,98278.34
2022-12-28T23:33:36.692Z,98278.75
2022-12-28T23:36:06.989Z,98278.31
2022-12-28T23:38:35.473Z,98270.25
2022-12-28T23:41:24.714Z,98267.03
2022-12-28T23:43:52.908Z,98270.56
2022-12-28T23:46:21.081Z,98269.69
2022-12-28T23:48:50.667Z,98265.63
2022-12-28T23:51:18.784Z,98265.44
2022-12-28T23:53:46.832Z,98269.22
2022-12-28T23:56:14.934Z,98265.34
2022-12-28T23:58:43.098Z,98277.44
